createdAt,value
2023-05-25T00:00:44.071Z,17.20
2023-05-25T00:03:13.500Z,17.10
2023-05-25T00:05:42.317Z,17.00
2023-05-25T00:08:12.141Z,17.10
2023-05-25T00:10:41.677Z,16.90
2023-05-25T00:13:16.801Z,17.10
2023-05-25T00:15:46.382Z,17.10
2023-05-25T00:18:16.004Z,16.80
2023-05-25T00:20:45.999Z,16.90
2023-05-25T00:23:15.632Z,16.90
2023-05-25T00:25:46.177Z,16.80
2023-05-25T00:28:16.088Z,16.70
2023-05-25T00:30:44.905Z,16.70
2023-05-25T00:33:14.316Z,16.60
2023-05-25T00:35:44.958Z,16.50
2023-05-25T00:38:19.879Z,16.60
2023-05-25T00:40:49.424Z,16.50
2023-05-25T00:43:19.665Z,16.50
2023-05-25T00:45:52.100Z,16.60
2023-05-25T00:48:21.736Z,16.60
2023-05-25T00:50:54.315Z,16.40
2023-05-25T00:53:24.280Z,16.40
2023-05-25T00:56:02.539Z,16.40
2023-05-25T00:58:35.162Z,16.30
2023-05-25T01:01:08.565Z,16.30
2023-05-25T01:03:39.510Z,16.30
2023-05-25T01:06:14.798Z,16.20
2023-05-25T01:08:47.447Z,16.20
2023-05-25T01:11:20.165Z,16.10
2023-05-25T01:13:51.790Z,16.20
2023-05-25T01:16:23.908Z,16.00
2023-05-25T01:18:54.627Z,16.00
2023-05-25T01:21:54.376Z,15.90
2023-05-25T01:24:31.817Z,16.00
2023-05-25T01:27:12.181Z,16.00
2023-05-25T01:29:44.845Z,16.00
2023-05-25T01:32:19.690Z,16.00
2023-05-25T01:34:53.031Z,16.00
2023-05-25T01:37:24.213Z,15.80
2023-05-25T01:39:53.875Z,15.70
2023-05-25T01:42:23.417Z,15.80
2023-05-25T01:44:56.221Z,15.70
2023-05-25T01:47:41.265Z,15.70
2023-05-25T01:50:18.579Z,15.60
2023-05-25T01:52:51.183Z,15.50
2023-05-25T01:55:22.695Z,15.50
2023-05-25T01:57:57.595Z,15.70
2023-05-25T02:00:32.118Z,15.40
2023-05-25T02:03:03.600Z,15.30
2023-05-25T02:05:33.384Z,15.50
2023-05-25T02:08:02.984Z,15.30
2023-05-25T02:10:34.954Z,15.40
2023-05-25T02:13:04.576Z,15.40
2023-05-25T02:15:35.001Z,15.40
2023-05-25T02:18:06.687Z,15.40
2023-05-25T02:20:38.454Z,15.30
2023-05-25T02:25:43.275Z,15.10
2023-05-25T02:28:13.016Z,15.10
2023-05-25T02:30:42.654Z,15.30
2023-05-25T02:33:12.467Z,15.20
2023-05-25T02:35:42.177Z,15.20
2023-05-25T02:38:14.203Z,15.10
2023-05-25T02:40:43.910Z,15.00
2023-05-25T02:43:15.009Z,15.00
2023-05-25T02:45:46.121Z,15.00
2023-05-25T02:48:16.682Z,15.00
2023-05-25T02:50:46.993Z,14.90
2023-05-25T02:53:17.520Z,15.10
2023-05-25T02:55:47.045Z,14.80
2023-05-25T02:58:19.448Z,14.90
2023-05-25T03:00:54.504Z,14.80
2023-05-25T03:03:24.235Z,14.70
2023-05-25T03:05:54.848Z,14.70
2023-05-25T03:08:24.536Z,14.80
2023-05-25T03:10:54.153Z,14.60
2023-05-25T03:13:23.763Z,14.60
2023-05-25T03:15:53.592Z,14.70
2023-05-25T03:18:23.183Z,14.70
2023-05-25T03:20:52.880Z,14.60
2023-05-25T03:23:22.579Z,14.50
2023-05-25T03:25:54.344Z,14.60
2023-05-25T03:28:24.081Z,14.60
2023-05-25T03:30:54.335Z,14.50
2023-05-25T03:33:24.378Z,14.60
2023-05-25T03:35:55.146Z,14.40
2023-05-25T03:38:26.535Z,14.60
2023-05-25T03:40:56.327Z,14.70
2023-05-25T03:43:25.908Z,14.60
2023-05-25T03:45:56.973Z,14.40
2023-05-25T03:48:26.513Z,14.40
2023-05-25T03:50:56.852Z,14.50
2023-05-25T03:53:28.059Z,14.50
2023-05-25T03:55:58.517Z,14.50
2023-05-25T03:58:28.012Z,14.40
2023-05-25T04:00:57.516Z,14.40
2023-05-25T04:03:28.362Z,14.40
2023-05-25T04:06:00.548Z,14.30
2023-05-25T04:08:31.014Z,14.50
2023-05-25T04:11:00.516Z,14.40
2023-05-25T04:13:35.144Z,14.40
2023-05-25T04:16:04.914Z,14.40
2023-05-25T04:18:35.422Z,14.50
2023-05-25T04:21:05.702Z,14.40
2023-05-25T04:23:35.253Z,14.20
2023-05-25T04:26:06.203Z,14.30
2023-05-25T04:28:37.617Z,14.40
2023-05-25T04:31:13.669Z,14.50
2023-05-25T04:33:47.792Z,14.30
2023-05-25T04:36:19.460Z,14.40
2023-05-25T04:38:51.485Z,14.30
2023-05-25T04:41:21.962Z,14.40
2023-05-25T04:44:08.014Z,14.40
2023-05-25T04:46:26.354Z,14.40
2023-05-25T04:48:56.088Z,14.60
2023-05-25T04:51:28.242Z,14.50
2023-05-25T04:54:00.286Z,14.40
2023-05-25T04:56:30.020Z,14.60
2023-05-25T04:58:59.624Z,14.60
2023-05-25T05:01:30.981Z,14.40
2023-05-25T05:04:03.231Z,14.40
2023-05-25T05:06:36.913Z,14.30
2023-05-25T05:09:06.677Z,14.70
2023-05-25T05:11:36.226Z,14.60
2023-05-25T05:14:08.213Z,14.50
2023-05-25T05:16:38.949Z,14.50
2023-05-25T05:19:09.195Z,14.40
2023-05-25T05:21:39.591Z,14.50
2023-05-25T05:24:10.505Z,14.70
2023-05-25T05:26:56.171Z,14.60
2023-05-25T05:29:14.880Z,14.50
2023-05-25T05:31:45.379Z,14.70
2023-05-25T05:34:15.806Z,14.60
2023-05-25T05:36:57.206Z,14.70
2023-05-25T05:39:19.096Z,14.60
2023-05-25T05:41:48.848Z,14.80
2023-05-25T05:44:24.622Z,14.80
2023-05-25T05:46:55.762Z,14.90
2023-05-25T05:49:26.361Z,14.90
2023-05-25T05:51:56.263Z,14.90
2023-05-25T05:54:27.516Z,15.10
2023-05-25T05:56:58.293Z,15.00
2023-05-25T05:59:27.876Z,15.00
2023-05-25T06:01:58.131Z,14.90
2023-05-25T06:04:29.422Z,15.00
2023-05-25T06:07:00.359Z,15.10
2023-05-25T06:09:30.233Z,15.30
2023-05-25T06:12:02.056Z,15.30
2023-05-25T06:14:32.630Z,15.50
2023-05-25T06:17:04.084Z,15.40
2023-05-25T06:19:34.549Z,15.60
2023-05-25T06:22:06.627Z,15.40
2023-05-25T06:24:36.176Z,15.50
2023-05-25T06:27:05.931Z,15.50
2023-05-25T06:29:36.879Z,15.60
2023-05-25T06:32:11.802Z,15.80
2023-05-25T06:34:43.231Z,15.90
2023-05-25T06:37:12.806Z,15.90
2023-05-25T06:39:44.092Z,16.30
2023-05-25T06:42:13.757Z,16.30
2023-05-25T06:44:45.082Z,16.50
2023-05-25T06:47:14.622Z,16.60
2023-05-25T06:49:44.269Z,16.70
2023-05-25T06:52:22.448Z,16.80
2023-05-25T06:54:51.903Z,16.90
2023-05-25T06:57:21.514Z,16.70
2023-05-25T06:59:51.833Z,16.70
2023-05-25T07:02:21.497Z,16.70
2023-05-25T07:04:52.183Z,17.00
2023-05-25T07:07:22.670Z,17.40
2023-05-25T07:09:51.852Z,17.30
2023-05-25T07:12:21.651Z,17.40
2023-05-25T07:14:51.356Z,17.50
2023-05-25T07:17:21.938Z,17.50
2023-05-25T07:19:52.105Z,17.30
2023-05-25T07:22:23.969Z,17.10
2023-05-25T07:24:52.696Z,17.10
2023-05-25T07:27:22.167Z,17.20
2023-05-25T07:29:51.994Z,17.80
2023-05-25T07:32:21.937Z,17.60
2023-05-25T07:34:51.052Z,18.00
2023-05-25T07:37:21.331Z,18.10
2023-05-25T07:39:50.856Z,18.30
2023-05-25T07:42:22.420Z,18.10
2023-05-25T07:44:51.939Z,18.10
2023-05-25T07:47:24.423Z,18.40
2023-05-25T07:49:54.503Z,19.10
2023-05-25T07:52:24.232Z,19.00
2023-05-25T07:54:54.314Z,18.70
2023-05-25T07:57:25.823Z,18.40
2023-05-25T07:59:55.864Z,18.50
2023-05-25T08:02:24.690Z,19.00
2023-05-25T08:04:54.590Z,19.50
2023-05-25T08:07:25.778Z,19.70
2023-05-25T08:09:55.370Z,20.20
2023-05-25T08:12:47.031Z,20.60
2023-05-25T08:15:02.249Z,20.00
2023-05-25T08:17:31.864Z,20.50
2023-05-25T08:20:02.422Z,20.80
2023-05-25T08:22:33.881Z,20.80
2023-05-25T08:25:07.040Z,20.50
2023-05-25T08:27:38.535Z,20.50
2023-05-25T08:30:10.866Z,20.40
2023-05-25T08:32:39.650Z,20.20
2023-05-25T08:35:10.178Z,20.60
2023-05-25T08:37:40.748Z,21.00
2023-05-25T08:40:13.912Z,20.70
2023-05-25T08:42:46.305Z,20.80
2023-05-25T08:45:30.555Z,21.30
2023-05-25T08:47:48.816Z,21.80
2023-05-25T08:50:19.640Z,21.70
2023-05-25T08:52:52.721Z,22.00
2023-05-25T08:55:24.453Z,22.00
2023-05-25T08:58:02.875Z,22.50
2023-05-25T09:00:38.406Z,22.00
2023-05-25T09:03:18.391Z,22.80
2023-05-25T09:05:49.916Z,23.00
2023-05-25T09:08:21.376Z,23.10
2023-05-25T09:10:53.312Z,23.70
2023-05-25T09:13:23.354Z,24.10
2023-05-25T09:15:54.497Z,24.10
2023-05-25T09:18:24.324Z,24.20
2023-05-25T09:20:55.837Z,23.30
2023-05-25T09:23:26.358Z,23.40
2023-05-25T09:28:27.608Z,22.40
2023-05-25T09:30:58.341Z,22.20
2023-05-25T09:33:28.724Z,22.20
2023-05-25T09:35:58.588Z,22.60
2023-05-25T09:38:28.286Z,22.70
2023-05-25T09:40:59.011Z,23.70
2023-05-25T09:43:40.504Z,24.10
2023-05-25T09:46:00.549Z,24.00
2023-05-25T09:48:30.297Z,24.20
2023-05-25T09:51:00.168Z,24.20
2023-05-25T09:53:30.261Z,24.00
2023-05-25T09:56:03.261Z,23.80
2023-05-25T09:58:33.406Z,25.10
2023-05-25T10:01:05.233Z,25.50
2023-05-25T10:03:34.907Z,25.70
2023-05-25T10:06:06.205Z,24.90
2023-05-25T10:08:35.961Z,24.80
2023-05-25T10:11:07.923Z,25.50
2023-05-25T10:13:38.672Z,24.90
2023-05-25T10:16:15.817Z,25.80
2023-05-25T10:19:00.618Z,26.20
2023-05-25T10:21:32.672Z,26.10
2023-05-25T10:24:07.268Z,26.40
2023-05-25T10:26:39.861Z,26.90
2023-05-25T10:29:11.407Z,26.50
2023-05-25T10:31:42.866Z,26.00
2023-05-25T10:34:13.322Z,25.40
2023-05-25T10:36:43.187Z,25.00
2023-05-25T10:39:14.011Z,24.80
2023-05-25T10:41:44.708Z,24.30
2023-05-25T10:44:16.675Z,24.70
2023-05-25T10:46:53.337Z,24.40
2023-05-25T10:49:37.367Z,24.40
2023-05-25T10:52:07.893Z,24.20
2023-05-25T10:54:39.677Z,24.40
2023-05-25T10:57:17.275Z,24.60
2023-05-25T10:59:51.811Z,24.00
2023-05-25T11:02:24.718Z,24.30
2023-05-25T11:05:13.723Z,24.20
2023-05-25T11:07:59.822Z,24.30
2023-05-25T11:10:53.039Z,24.30
2023-05-25T11:13:42.557Z,24.40
2023-05-25T11:16:31.309Z,25.00
2023-05-25T11:19:01.796Z,26.30
2023-05-25T11:21:38.335Z,25.80
2023-05-25T11:24:18.764Z,25.50
2023-05-25T11:27:00.049Z,25.70
2023-05-25T11:29:33.779Z,26.10
2023-05-25T11:32:03.431Z,25.80
2023-05-25T11:34:33.454Z,26.70
2023-05-25T11:37:04.661Z,25.80
2023-05-25T11:39:34.200Z,25.20
2023-05-25T11:42:08.189Z,25.20
2023-05-25T11:44:39.652Z,26.20
2023-05-25T11:47:14.452Z,26.40
2023-05-25T11:49:47.754Z,27.30
2023-05-25T11:52:19.937Z,27.00
2023-05-25T11:54:48.877Z,25.80
2023-05-25T11:57:25.960Z,25.60
2023-05-25T11:59:57.748Z,25.70
2023-05-25T12:02:27.610Z,26.50
2023-05-25T12:05:01.418Z,26.40
2023-05-25T12:07:34.795Z,26.60
2023-05-25T12:10:17.324Z,26.80
2023-05-25T12:12:49.672Z,26.70
2023-05-25T12:15:27.509Z,24.70
2023-05-25T12:17:57.198Z,24.00
2023-05-25T12:20:28.458Z,23.30
2023-05-25T12:22:59.653Z,24.30
2023-05-25T12:25:42.295Z,25.40
2023-05-25T12:28:17.440Z,24.50
2023-05-25T12:30:47.792Z,26.40
2023-05-25T12:33:20.236Z,26.80
2023-05-25T12:35:50.464Z,25.80
2023-05-25T12:38:22.877Z,25.00
2023-05-25T12:41:10.165Z,24.40
2023-05-25T12:43:44.204Z,24.40
2023-05-25T12:46:17.640Z,25.10
2023-05-25T12:48:48.226Z,23.60
2023-05-25T12:51:16.966Z,23.50
2023-05-25T12:53:52.397Z,24.00
2023-05-25T12:56:22.856Z,22.50
2023-05-25T12:58:52.522Z,23.90
2023-05-25T13:01:22.833Z,24.50
2023-05-25T13:03:54.440Z,25.00
2023-05-25T13:06:23.955Z,25.60
2023-05-25T13:08:53.483Z,24.70
2023-05-25T13:11:23.225Z,23.80
2023-05-25T13:13:54.021Z,24.30
2023-05-25T13:16:25.458Z,25.00
2023-05-25T13:18:54.955Z,24.90
2023-05-25T13:21:24.587Z,24.10
2023-05-25T13:23:53.338Z,24.80
2023-05-25T13:26:22.630Z,25.40
2023-05-25T13:28:51.253Z,26.20
2023-05-25T13:31:20.076Z,26.30
2023-05-25T13:33:49.324Z,24.80
2023-05-25T13:36:18.051Z,23.80
2023-05-25T13:38:47.057Z,24.00
2023-05-25T13:41:16.652Z,24.80
2023-05-25T13:43:45.883Z,24.40
2023-05-25T13:46:25.938Z,24.60
2023-05-25T13:48:47.380Z,24.80
2023-05-25T13:51:17.606Z,24.80
2023-05-25T13:53:47.875Z,24.10
2023-05-25T13:56:16.542Z,23.80
2023-05-25T13:58:45.530Z,24.20
2023-05-25T14:01:14.824Z,25.10
2023-05-25T14:03:44.259Z,24.70
2023-05-25T14:06:13.682Z,24.90
2023-05-25T14:08:42.405Z,24.90
2023-05-25T14:11:11.063Z,25.40
2023-05-25T14:13:40.367Z,25.70
2023-05-25T14:16:09.926Z,25.10
2023-05-25T14:18:38.659Z,25.30
2023-05-25T14:21:07.411Z,25.90
2023-05-25T14:23:36.158Z,25.10
2023-05-25T14:26:04.986Z,24.60
2023-05-25T14:28:33.738Z,24.70
2023-05-25T14:31:02.443Z,23.70
2023-05-25T14:33:32.023Z,24.30
2023-05-25T14:36:01.366Z,24.40
2023-05-25T14:38:31.669Z,24.20
2023-05-25T14:41:00.327Z,23.20
2023-05-25T14:43:30.182Z,23.30
2023-05-25T14:45:58.838Z,23.60
2023-05-25T14:48:27.590Z,23.30
2023-05-25T14:50:58.094Z,23.50
2023-05-25T14:53:27.311Z,23.10
2023-05-25T14:55:56.155Z,23.00
2023-05-25T14:58:26.113Z,23.40
2023-05-25T15:00:58.067Z,23.70
2023-05-25T15:03:27.057Z,24.00
2023-05-25T15:05:56.574Z,23.50
2023-05-25T15:08:25.971Z,23.60
2023-05-25T15:10:55.029Z,23.90
2023-05-25T15:13:25.871Z,23.60
2023-05-25T15:15:56.378Z,24.10
2023-05-25T15:18:25.421Z,23.50
2023-05-25T15:20:54.731Z,22.80
2023-05-25T15:23:23.475Z,22.30
2023-05-25T15:25:52.541Z,22.30
2023-05-25T15:28:24.873Z,22.30
2023-05-25T15:30:54.391Z,22.50
2023-05-25T15:33:25.772Z,22.50
2023-05-25T15:35:53.690Z,22.10
2023-05-25T15:38:22.392Z,22.10
2023-05-25T15:40:51.186Z,22.00
2023-05-25T15:43:19.957Z,22.20
2023-05-25T15:45:49.198Z,22.00
2023-05-25T15:48:17.934Z,21.80
2023-05-25T15:50:46.942Z,21.90
2023-05-25T15:53:16.831Z,21.80
2023-05-25T15:55:46.105Z,21.90
2023-05-25T15:58:16.737Z,22.10
2023-05-25T16:00:45.436Z,22.00
2023-05-25T16:03:14.103Z,22.10
2023-05-25T16:05:43.386Z,22.10
2023-05-25T16:08:13.994Z,21.90
2023-05-25T16:10:42.701Z,22.20
2023-05-25T16:13:13.081Z,21.90
2023-05-25T16:15:42.053Z,22.10
2023-05-25T16:18:11.915Z,21.80
2023-05-25T16:20:40.926Z,21.80
2023-05-25T16:23:11.159Z,21.90
2023-05-25T16:25:39.806Z,21.90
2023-05-25T16:28:09.122Z,22.20
2023-05-25T16:30:37.805Z,22.20
2023-05-25T16:33:06.599Z,22.00
2023-05-25T16:35:35.549Z,21.70
2023-05-25T16:38:04.750Z,21.70
2023-05-25T16:40:33.664Z,21.80
2023-05-25T16:43:02.812Z,21.90
2023-05-25T16:45:31.552Z,21.80
2023-05-25T16:48:00.355Z,21.70
2023-05-25T16:50:29.518Z,21.80
2023-05-25T16:52:58.237Z,21.70
2023-05-25T16:55:26.918Z,21.50
2023-05-25T16:57:55.652Z,21.60
2023-05-25T17:00:24.367Z,21.30
2023-05-25T17:02:53.085Z,21.40
2023-05-25T17:05:22.255Z,21.40
2023-05-25T17:07:51.319Z,21.20
2023-05-25T17:10:20.498Z,21.20
2023-05-25T17:12:49.261Z,21.20
2023-05-25T17:15:17.998Z,21.20
2023-05-25T17:17:46.870Z,21.20
2023-05-25T17:20:15.936Z,20.70
2023-05-25T17:22:44.643Z,20.70
2023-05-25T17:25:13.308Z,20.50
2023-05-25T17:27:42.058Z,20.70
2023-05-25T17:30:10.960Z,20.50
2023-05-25T17:32:41.213Z,20.30
2023-05-25T17:35:10.916Z,20.30
2023-05-25T17:37:39.658Z,20.20
2023-05-25T17:40:09.603Z,20.30
2023-05-25T17:42:38.520Z,20.30
2023-05-25T17:45:09.644Z,20.40
2023-05-25T17:47:39.227Z,20.40
2023-05-25T17:50:09.018Z,20.30
2023-05-25T17:52:37.660Z,20.20
2023-05-25T17:55:07.772Z,20.20
2023-05-25T17:57:36.958Z,20.10
2023-05-25T18:00:05.832Z,20.10
2023-05-25T18:02:36.344Z,19.90
2023-05-25T18:05:06.203Z,19.60
2023-05-25T18:07:34.887Z,19.60
2023-05-25T18:10:03.564Z,19.50
2023-05-25T18:12:32.256Z,19.50
2023-05-25T18:15:00.946Z,19.50
2023-05-25T18:17:32.605Z,19.40
2023-05-25T18:20:01.908Z,19.70
2023-05-25T18:22:31.758Z,19.40
2023-05-25T18:25:00.422Z,19.20
2023-05-25T18:27:29.273Z,19.20
2023-05-25T18:29:58.989Z,19.10
2023-05-25T18:32:28.353Z,19.10
2023-05-25T18:34:57.796Z,19.20
2023-05-25T18:37:27.565Z,19.00
2023-05-25T18:39:56.246Z,19.00
2023-05-25T18:42:25.781Z,19.00
2023-05-25T18:44:54.431Z,19.20
2023-05-25T18:47:23.136Z,19.10
2023-05-25T18:49:51.877Z,19.10
2023-05-25T18:52:20.598Z,19.40
2023-05-25T18:54:50.073Z,19.30
2023-05-25T18:57:18.810Z,19.10
2023-05-25T18:59:47.513Z,19.10
2023-05-25T19:02:16.298Z,19.10
2023-05-25T19:04:45.606Z,19.00
2023-05-25T19:07:14.421Z,19.30
2023-05-25T19:09:43.153Z,19.10
2023-05-25T19:12:11.862Z,19.20
2023-05-25T19:14:40.769Z,19.10
2023-05-25T19:17:10.159Z,18.90
2023-05-25T19:19:39.774Z,18.80
2023-05-25T19:22:08.900Z,18.90
2023-05-25T19:24:42.412Z,18.80
2023-05-25T19:27:09.512Z,19.00
2023-05-25T19:29:38.136Z,18.90
2023-05-25T19:32:06.930Z,19.00
2023-05-25T19:34:37.331Z,19.00
2023-05-25T19:37:11.531Z,19.00
2023-05-25T19:39:36.441Z,19.00
2023-05-25T19:42:05.796Z,18.50
2023-05-25T19:44:35.001Z,18.60
2023-05-25T19:47:03.728Z,18.80
2023-05-25T19:49:32.675Z,18.80
2023-05-25T19:52:01.414Z,18.90
2023-05-25T19:54:30.078Z,18.80
2023-05-25T19:56:59.423Z,18.90
2023-05-25T19:59:30.184Z,18.70
2023-05-25T20:01:59.009Z,18.80
2023-05-25T20:04:27.702Z,18.90
2023-05-25T20:06:56.343Z,19.00
2023-05-25T20:09:26.822Z,18.90
2023-05-25T20:11:55.539Z,19.00
2023-05-25T20:14:24.353Z,19.00
2023-05-25T20:16:55.458Z,18.90
2023-05-25T20:19:24.110Z,18.60
2023-05-25T20:21:53.464Z,18.70
2023-05-25T20:24:22.249Z,18.60
2023-05-25T20:26:52.542Z,18.60
2023-05-25T20:29:21.576Z,18.60
2023-05-25T20:31:51.214Z,18.70
2023-05-25T20:34:19.927Z,18.60
2023-05-25T20:36:48.643Z,18.60
2023-05-25T20:39:17.407Z,18.60
2023-05-25T20:41:46.158Z,18.50
2023-05-25T20:44:14.903Z,18.00
2023-05-25T20:46:43.862Z,18.00
2023-05-25T20:49:12.547Z,18.00
2023-05-25T20:51:43.857Z,17.70
2023-05-25T20:54:12.523Z,17.70
2023-05-25T20:56:41.206Z,18.00
2023-05-25T20:59:09.866Z,18.10
2023-05-25T21:01:38.581Z,17.60
2023-05-25T21:04:07.474Z,17.90
2023-05-25T21:06:38.138Z,17.90
2023-05-25T21:09:06.891Z,17.60
2023-05-25T21:11:36.225Z,17.60
2023-05-25T21:14:05.076Z,17.30
2023-05-25T21:16:33.742Z,17.60
2023-05-25T21:19:02.487Z,17.80
2023-05-25T21:21:33.035Z,17.80
2023-05-25T21:24:02.254Z,18.00
2023-05-25T21:26:32.299Z,18.00
2023-05-25T21:29:01.263Z,18.00
2023-05-25T21:31:30.053Z,18.00
2023-05-25T21:34:00.091Z,17.90
2023-05-25T21:36:29.061Z,17.90
2023-05-25T21:38:58.675Z,17.90
2023-05-25T21:41:29.614Z,17.90
2023-05-25T21:43:58.265Z,17.90
2023-05-25T21:46:27.013Z,17.80
2023-05-25T21:48:56.362Z,17.90
2023-05-25T21:51:25.032Z,17.90
2023-05-25T21:53:53.682Z,17.90
2023-05-25T21:56:24.821Z,17.80
2023-05-25T21:58:54.924Z,17.80
2023-05-25T22:01:27.598Z,17.80
2023-05-25T22:03:56.949Z,17.60
2023-05-25T22:06:25.646Z,17.40
2023-05-25T22:08:54.329Z,17.40
2023-05-25T22:11:24.447Z,17.50
2023-05-25T22:13:53.848Z,17.50
2023-05-25T22:16:23.280Z,17.60
2023-05-25T22:18:52.001Z,17.50
2023-05-25T22:21:20.657Z,17.50
2023-05-25T22:23:49.336Z,16.60
2023-05-25T22:26:18.102Z,16.90
2023-05-25T22:28:46.766Z,17.10
2023-05-25T22:31:15.717Z,17.00
2023-05-25T22:33:45.321Z,17.20
2023-05-25T22:36:15.190Z,17.20
2023-05-25T22:38:43.993Z,17.20
2023-05-25T22:41:12.755Z,17.20
2023-05-25T22:43:41.377Z,16.70
2023-05-25T22:46:10.959Z,16.90
2023-05-25T22:48:40.358Z,17.00
2023-05-25T22:51:09.678Z,17.20
2023-05-25T22:53:38.387Z,17.20
2023-05-25T22:56:07.120Z,16.60
2023-05-25T22:58:35.774Z,16.10
2023-05-25T23:01:04.778Z,16.50
2023-05-25T23:03:33.527Z,16.60
2023-05-25T23:06:02.292Z,16.80
2023-05-25T23:08:31.902Z,16.30
2023-05-25T23:11:00.507Z,16.50
2023-05-25T23:13:29.391Z,16.70
2023-05-25T23:15:58.072Z,16.80
2023-05-25T23:18:26.823Z,16.80
2023-05-25T23:20:55.467Z,16.20
2023-05-25T23:23:24.723Z,15.90
2023-05-25T23:25:54.183Z,15.30
2023-05-25T23:28:22.885Z,15.30
2023-05-25T23:30:52.128Z,15.60
2023-05-25T23:33:21.013Z,15.40
2023-05-25T23:35:49.826Z,15.40
2023-05-25T23:38:19.540Z,15.10
2023-05-25T23:40:48.337Z,15.50
2023-05-25T23:43:17.374Z,15.90
2023-05-25T23:45:47.638Z,16.20
2023-05-25T23:48:16.700Z,16.40
2023-05-25T23:50:45.759Z,16.40
2023-05-25T23:53:14.667Z,16.50
2023-05-25T23:55:43.787Z,16.50
2023-05-25T23:58:13.170Z,16.50
